sensor_id;sensor_type;location;lat;lon;timestamp;P1;durP1;ratioP1;P2;durP2;ratioP2
51746;SDS011;37825;40.088;18.302;2022-07-23T00:00:53;14.90;;;11.93;;
51746;SDS011;37825;40.088;18.302;2022-07-23T00:03:21;17.15;;;13.50;;
51746;SDS011;37825;40.088;18.302;2022-07-23T00:05:50;14.25;;;12.85;;
51746;SDS011;37825;40.088;18.302;2022-07-23T00:08:18;15.13;;;13.63;;
51746;SDS011;37825;40.088;18.302;2022-07-23T00:10:47;19.60;;;12.35;;
51746;SDS011;37825;40.088;18.302;2022-07-23T00:13:16;14.40;;;11.82;;
51746;SDS011;37825;40.088;18.302;2022-07-23T00:15:44;11.38;;;10.10;;
51746;SDS011;37825;40.088;18.302;2022-07-23T00:18:13;16.00;;;11.57;;
51746;SDS011;37825;40.088;18.302;2022-07-23T00:20:41;12.27;;;10.55;;
51746;SDS011;37825;40.088;18.302;2022-07-23T00:23:09;15.50;;;10.13;;
51746;SDS011;37825;40.088;18.302;2022-07-23T00:25:37;12.02;;;10.48;;
51746;SDS011;37825;40.088;18.302;2022-07-23T00:28:06;13.07;;;9.93;;
51746;SDS011;37825;40.088;18.302;2022-07-23T00:30:35;12.93;;;10.18;;
51746;SDS011;37825;40.088;18.302;2022-07-23T00:33:05;15.27;;;10.77;;
51746;SDS011;37825;40.088;18.302;2022-07-23T00:35:35;12.73;;;9.68;;
51746;SDS011;37825;40.088;18.302;2022-07-23T00:38:04;12.07;;;9.27;;
51746;SDS011;37825;40.088;18.302;2022-07-23T00:40:33;10.82;;;8.15;;
51746;SDS011;37825;40.088;18.302;2022-07-23T00:43:02;10.02;;;9.00;;
51746;SDS011;37825;40.088;18.302;2022-07-23T00:45:31;9.45;;;8.23;;
51746;SDS011;37825;40.088;18.302;2022-07-23T00:48:00;10.70;;;9.15;;
51746;SDS011;37825;40.088;18.302;2022-07-23T00:50:28;9.32;;;8.25;;
51746;SDS011;37825;40.088;18.302;2022-07-23T00:52:57;8.40;;;7.60;;
51746;SDS011;37825;40.088;18.302;2022-07-23T00:55:25;8.90;;;7.35;;
51746;SDS011;37825;40.088;18.302;2022-07-23T00:57:54;10.48;;;7.70;;
51746;SDS011;37825;40.088;18.302;2022-07-23T01:00:24;12.37;;;8.33;;
51746;SDS011;37825;40.088;18.302;2022-07-23T01:02:53;14.15;;;7.18;;
51746;SDS011;37825;40.088;18.302;2022-07-23T01:05:22;11.68;;;7.93;;
51746;SDS011;37825;40.088;18.302;2022-07-23T01:07:51;14.68;;;8.40;;
51746;SDS011;37825;40.088;18.302;2022-07-23T01:10:22;10.52;;;7.50;;
51746;SDS011;37825;40.088;18.302;2022-07-23T01:13:03;11.55;;;7.45;;
51746;SDS011;37825;40.088;18.302;2022-07-23T01:15:34;7.65;;;6.95;;
51746;SDS011;37825;40.088;18.302;2022-07-23T01:18:05;9.32;;;6.97;;
51746;SDS011;37825;40.088;18.302;2022-07-23T01:20:35;8.43;;;6.68;;
51746;SDS011;37825;40.088;18.302;2022-07-23T01:23:05;10.05;;;7.55;;
51746;SDS011;37825;40.088;18.302;2022-07-23T01:25:34;11.75;;;8.70;;
51746;SDS011;37825;40.088;18.302;2022-07-23T01:28:03;10.63;;;7.30;;
51746;SDS011;37825;40.088;18.302;2022-07-23T01:30:32;7.90;;;6.82;;
51746;SDS011;37825;40.088;18.302;2022-07-23T01:33:04;7.85;;;6.22;;
51746;SDS011;37825;40.088;18.302;2022-07-23T01:35:33;7.53;;;6.60;;
51746;SDS011;37825;40.088;18.302;2022-07-23T01:38:05;8.82;;;6.80;;
51746;SDS011;37825;40.088;18.302;2022-07-23T01:40:38;9.60;;;5.57;;
51746;SDS011;37825;40.088;18.302;2022-07-23T01:43:06;9.07;;;5.97;;
51746;SDS011;37825;40.088;18.302;2022-07-23T01:45:36;6.63;;;5.13;;
51746;SDS011;37825;40.088;18.302;2022-07-23T01:48:05;6.65;;;5.20;;
51746;SDS011;37825;40.088;18.302;2022-07-23T01:50:39;5.63;;;4.97;;
51746;SDS011;37825;40.088;18.302;2022-07-23T01:53:30;6.82;;;5.05;;
51746;SDS011;37825;40.088;18.302;2022-07-23T01:55:58;5.75;;;4.70;;
51746;SDS011;37825;40.088;18.302;2022-07-23T01:58:27;7.70;;;4.97;;
51746;SDS011;37825;40.088;18.302;2022-07-23T02:00:56;8.40;;;5.03;;
51746;SDS011;37825;40.088;18.302;2022-07-23T02:03:25;9.32;;;5.28;;
51746;SDS011;37825;40.088;18.302;2022-07-23T02:05:54;6.40;;;4.57;;
51746;SDS011;37825;40.088;18.302;2022-07-23T02:08:24;7.90;;;5.25;;
51746;SDS011;37825;40.088;18.302;2022-07-23T02:10:53;6.13;;;5.10;;
51746;SDS011;37825;40.088;18.302;2022-07-23T02:13:22;7.90;;;5.55;;
51746;SDS011;37825;40.088;18.302;2022-07-23T02:15:50;8.15;;;5.45;;
51746;SDS011;37825;40.088;18.302;2022-07-23T02:18:19;5.53;;;4.97;;
51746;SDS011;37825;40.088;18.302;2022-07-23T02:20:48;6.10;;;4.55;;
51746;SDS011;37825;40.088;18.302;2022-07-23T02:23:16;5.97;;;5.32;;
51746;SDS011;37825;40.088;18.302;2022-07-23T02:25:45;5.30;;;4.70;;
51746;SDS011;37825;40.088;18.302;2022-07-23T02:28:13;6.43;;;5.50;;
51746;SDS011;37825;40.088;18.302;2022-07-23T02:30:42;8.80;;;5.03;;
51746;SDS011;37825;40.088;18.302;2022-07-23T02:33:10;6.70;;;4.80;;
51746;SDS011;37825;40.088;18.302;2022-07-23T02:35:40;9.60;;;5.35;;
51746;SDS011;37825;40.088;18.302;2022-07-23T02:38:10;7.40;;;4.80;;
51746;SDS011;37825;40.088;18.302;2022-07-23T02:40:39;6.63;;;5.22;;
51746;SDS011;37825;40.088;18.302;2022-07-23T02:43:08;5.72;;;5.20;;
51746;SDS011;37825;40.088;18.302;2022-07-23T02:45:39;5.90;;;5.30;;
51746;SDS011;37825;40.088;18.302;2022-07-23T02:48:09;6.45;;;5.68;;
51746;SDS011;37825;40.088;18.302;2022-07-23T02:50:43;7.72;;;5.75;;
51746;SDS011;37825;40.088;18.302;2022-07-23T02:53:15;8.82;;;5.28;;
51746;SDS011;37825;40.088;18.302;2022-07-23T02:55:45;9.48;;;6.38;;
51746;SDS011;37825;40.088;18.302;2022-07-23T02:58:14;8.57;;;6.05;;
51746;SDS011;37825;40.088;18.302;2022-07-23T03:00:42;8.35;;;6.38;;
51746;SDS011;37825;40.088;18.302;2022-07-23T03:03:10;11.15;;;5.72;;
51746;SDS011;37825;40.088;18.302;2022-07-23T03:05:39;9.45;;;5.38;;
51746;SDS011;37825;40.088;18.302;2022-07-23T03:08:08;8.60;;;5.70;;
51746;SDS011;37825;40.088;18.302;2022-07-23T03:10:41;7.55;;;6.10;;
51746;SDS011;37825;40.088;18.302;2022-07-23T03:13:09;9.43;;;6.32;;
51746;SDS011;37825;40.088;18.302;2022-07-23T03:15:38;8.40;;;6.57;;
51746;SDS011;37825;40.088;18.302;2022-07-23T03:18:06;9.70;;;5.97;;
51746;SDS011;37825;40.088;18.302;2022-07-23T03:20:35;10.85;;;6.85;;
51746;SDS011;37825;40.088;18.302;2022-07-23T03:23:03;10.63;;;5.93;;
51746;SDS011;37825;40.088;18.302;2022-07-23T03:25:31;6.10;;;5.53;;
51746;SDS011;37825;40.088;18.302;2022-07-23T03:28:00;11.40;;;5.28;;
51746;SDS011;37825;40.088;18.302;2022-07-23T03:30:29;7.68;;;6.30;;
51746;SDS011;37825;40.088;18.302;2022-07-23T03:32:58;9.27;;;5.72;;
51746;SDS011;37825;40.088;18.302;2022-07-23T03:35:27;10.68;;;6.18;;
51746;SDS011;37825;40.088;18.302;2022-07-23T03:38:16;9.82;;;6.55;;
51746;SDS011;37825;40.088;18.302;2022-07-23T03:40:46;12.52;;;6.70;;
51746;SDS011;37825;40.088;18.302;2022-07-23T03:43:14;7.13;;;5.45;;
51746;SDS011;37825;40.088;18.302;2022-07-23T03:45:45;8.32;;;6.32;;
51746;SDS011;37825;40.088;18.302;2022-07-23T03:48:14;7.35;;;6.70;;
51746;SDS011;37825;40.088;18.302;2022-07-23T03:50:44;7.00;;;5.78;;
51746;SDS011;37825;40.088;18.302;2022-07-23T03:53:13;9.52;;;6.15;;
51746;SDS011;37825;40.088;18.302;2022-07-23T03:55:41;9.00;;;5.90;;
51746;SDS011;37825;40.088;18.302;2022-07-23T03:58:10;10.52;;;6.45;;
51746;SDS011;37825;40.088;18.302;2022-07-23T04:00:38;7.85;;;5.53;;
51746;SDS011;37825;40.088;18.302;2022-07-23T04:03:07;11.93;;;6.72;;
51746;SDS011;37825;40.088;18.302;2022-07-23T04:05:36;11.52;;;5.95;;
51746;SDS011;37825;40.088;18.302;2022-07-23T04:08:06;10.70;;;6.07;;
51746;SDS011;37825;40.088;18.302;2022-07-23T04:10:39;14.88;;;7.32;;
51746;SDS011;37825;40.088;18.302;2022-07-23T04:13:08;7.82;;;6.55;;
51746;SDS011;37825;40.088;18.302;2022-07-23T04:15:38;9.57;;;6.30;;
51746;SDS011;37825;40.088;18.302;2022-07-23T04:18:07;10.00;;;6.30;;
51746;SDS011;37825;40.088;18.302;2022-07-23T04:20:46;7.72;;;5.50;;
51746;SDS011;37825;40.088;18.302;2022-07-23T04:23:15;10.85;;;5.22;;
51746;SDS011;37825;40.088;18.302;2022-07-23T04:25:44;8.65;;;5.97;;
51746;SDS011;37825;40.088;18.302;2022-07-23T04:28:13;7.55;;;5.35;;
51746;SDS011;37825;40.088;18.302;2022-07-23T04:30:42;5.05;;;4.55;;
51746;SDS011;37825;40.088;18.302;2022-07-23T04:33:13;7.75;;;4.53;;
51746;SDS011;37825;40.088;18.302;2022-07-23T04:35:42;5.30;;;4.80;;
51746;SDS011;37825;40.088;18.302;2022-07-23T04:38:19;7.18;;;4.95;;
51746;SDS011;37825;40.088;18.302;2022-07-23T04:40:50;6.93;;;5.07;;
51746;SDS011;37825;40.088;18.302;2022-07-23T04:43:19;5.47;;;4.70;;
51746;SDS011;37825;40.088;18.302;2022-07-23T04:45:49;9.10;;;4.70;;
51746;SDS011;37825;40.088;18.302;2022-07-23T04:48:18;9.82;;;4.93;;
51746;SDS011;37825;40.088;18.302;2022-07-23T04:50:53;6.53;;;4.47;;
51746;SDS011;37825;40.088;18.302;2022-07-23T04:53:22;6.27;;;5.20;;
51746;SDS011;37825;40.088;18.302;2022-07-23T04:55:54;6.53;;;4.75;;
51746;SDS011;37825;40.088;18.302;2022-07-23T04:58:22;8.10;;;5.30;;
51746;SDS011;37825;40.088;18.302;2022-07-23T05:00:50;7.10;;;4.53;;
51746;SDS011;37825;40.088;18.302;2022-07-23T05:03:19;9.10;;;4.88;;
51746;SDS011;37825;40.088;18.302;2022-07-23T05:05:48;9.10;;;5.43;;
51746;SDS011;37825;40.088;18.302;2022-07-23T05:08:18;7.15;;;5.18;;
51746;SDS011;37825;40.088;18.302;2022-07-23T05:10:51;7.47;;;5.40;;
51746;SDS011;37825;40.088;18.302;2022-07-23T05:13:20;5.75;;;5.07;;
51746;SDS011;37825;40.088;18.302;2022-07-23T05:15:53;8.05;;;5.10;;
51746;SDS011;37825;40.088;18.302;2022-07-23T05:18:23;8.07;;;4.55;;
51746;SDS011;37825;40.088;18.302;2022-07-23T05:20:53;9.25;;;4.63;;
51746;SDS011;37825;40.088;18.302;2022-07-23T05:23:22;11.10;;;5.45;;
51746;SDS011;37825;40.088;18.302;2022-07-23T05:25:52;5.95;;;4.65;;
51746;SDS011;37825;40.088;18.302;2022-07-23T05:28:21;5.43;;;4.22;;
51746;SDS011;37825;40.088;18.302;2022-07-23T05:33:20;4.85;;;3.88;;
51746;SDS011;37825;40.088;18.302;2022-07-23T05:35:50;11.85;;;5.03;;
51746;SDS011;37825;40.088;18.302;2022-07-23T05:38:26;17.67;;;4.28;;
51746;SDS011;37825;40.088;18.302;2022-07-23T05:40:58;7.57;;;3.90;;
51746;SDS011;37825;40.088;18.302;2022-07-23T05:43:27;7.90;;;4.88;;
51746;SDS011;37825;40.088;18.302;2022-07-23T05:45:57;10.27;;;3.90;;
51746;SDS011;37825;40.088;18.302;2022-07-23T05:48:26;5.43;;;4.07;;
51746;SDS011;37825;40.088;18.302;2022-07-23T05:51:05;7.32;;;3.67;;
51746;SDS011;37825;40.088;18.302;2022-07-23T05:53:34;6.60;;;3.58;;
51746;SDS011;37825;40.088;18.302;2022-07-23T05:56:14;11.60;;;3.63;;
51746;SDS011;37825;40.088;18.302;2022-07-23T05:58:43;10.85;;;3.95;;
51746;SDS011;37825;40.088;18.302;2022-07-23T06:01:13;6.68;;;3.35;;
51746;SDS011;37825;40.088;18.302;2022-07-23T06:03:53;5.85;;;2.58;;
51746;SDS011;37825;40.088;18.302;2022-07-23T06:06:23;7.97;;;3.17;;
51746;SDS011;37825;40.088;18.302;2022-07-23T06:08:52;7.30;;;3.30;;
51746;SDS011;37825;40.088;18.302;2022-07-23T06:11:21;4.78;;;3.10;;
51746;SDS011;37825;40.088;18.302;2022-07-23T06:13:49;4.45;;;3.45;;
51746;SDS011;37825;40.088;18.302;2022-07-23T06:16:20;12.68;;;4.10;;
51746;SDS011;37825;40.088;18.302;2022-07-23T06:18:49;4.85;;;3.00;;
51746;SDS011;37825;40.088;18.302;2022-07-23T06:21:17;4.40;;;2.90;;
51746;SDS011;37825;40.088;18.302;2022-07-23T06:24:06;5.70;;;2.53;;
51746;SDS011;37825;40.088;18.302;2022-07-23T06:26:34;5.68;;;3.53;;
51746;SDS011;37825;40.088;18.302;2022-07-23T06:29:04;5.55;;;2.85;;
51746;SDS011;37825;40.088;18.302;2022-07-23T06:31:32;3.83;;;2.50;;
51746;SDS011;37825;40.088;18.302;2022-07-23T06:34:00;5.10;;;2.63;;
51746;SDS011;37825;40.088;18.302;2022-07-23T06:36:29;5.68;;;3.22;;
51746;SDS011;37825;40.088;18.302;2022-07-23T06:38:58;4.78;;;3.40;;
51746;SDS011;37825;40.088;18.302;2022-07-23T06:41:26;5.80;;;2.90;;
51746;SDS011;37825;40.088;18.302;2022-07-23T06:43:55;7.70;;;3.75;;
51746;SDS011;37825;40.088;18.302;2022-07-23T06:46:23;7.20;;;3.35;;
51746;SDS011;37825;40.088;18.302;2022-07-23T06:48:52;4.90;;;3.15;;
51746;SDS011;37825;40.088;18.302;2022-07-23T06:51:21;12.02;;;3.40;;
51746;SDS011;37825;40.088;18.302;2022-07-23T06:53:49;7.40;;;2.47;;
51746;SDS011;37825;40.088;18.302;2022-07-23T06:56:17;2.55;;;2.03;;
51746;SDS011;37825;40.088;18.302;2022-07-23T06:58:46;6.40;;;2.13;;
51746;SDS011;37825;40.088;18.302;2022-07-23T07:01:14;3.92;;;2.47;;
51746;SDS011;37825;40.088;18.302;2022-07-23T07:03:42;4.25;;;2.40;;
51746;SDS011;37825;40.088;18.302;2022-07-23T07:06:11;6.18;;;2.10;;
51746;SDS011;37825;40.088;18.302;2022-07-23T07:08:40;7.13;;;2.45;;
51746;SDS011;37825;40.088;18.302;2022-07-23T07:11:11;5.85;;;2.45;;
51746;SDS011;37825;40.088;18.302;2022-07-23T07:13:39;2.90;;;1.90;;
51746;SDS011;37825;40.088;18.302;2022-07-23T07:16:07;5.22;;;2.83;;
51746;SDS011;37825;40.088;18.302;2022-07-23T07:18:36;5.13;;;2.45;;
51746;SDS011;37825;40.088;18.302;2022-07-23T07:21:05;7.00;;;2.17;;
51746;SDS011;37825;40.088;18.302;2022-07-23T07:23:33;4.22;;;2.25;;
51746;SDS011;37825;40.088;18.302;2022-07-23T07:26:05;4.82;;;2.88;;
51746;SDS011;37825;40.088;18.302;2022-07-23T07:28:42;4.47;;;2.42;;
51746;SDS011;37825;40.088;18.302;2022-07-23T07:31:10;4.35;;;1.95;;
51746;SDS011;37825;40.088;18.302;2022-07-23T07:33:38;4.25;;;2.10;;
51746;SDS011;37825;40.088;18.302;2022-07-23T07:36:07;6.65;;;2.53;;
51746;SDS011;37825;40.088;18.302;2022-07-23T07:38:38;7.65;;;3.20;;
51746;SDS011;37825;40.088;18.302;2022-07-23T07:41:07;4.15;;;2.50;;
51746;SDS011;37825;40.088;18.302;2022-07-23T07:43:38;6.45;;;2.70;;
51746;SDS011;37825;40.088;18.302;2022-07-23T07:46:06;3.72;;;2.30;;
51746;SDS011;37825;40.088;18.302;2022-07-23T07:48:37;5.88;;;3.60;;
51746;SDS011;37825;40.088;18.302;2022-07-23T07:51:06;7.15;;;3.10;;
51746;SDS011;37825;40.088;18.302;2022-07-23T07:53:34;4.35;;;2.60;;
51746;SDS011;37825;40.088;18.302;2022-07-23T07:56:03;5.82;;;2.78;;
51746;SDS011;37825;40.088;18.302;2022-07-23T07:58:31;7.82;;;3.35;;
51746;SDS011;37825;40.088;18.302;2022-07-23T08:00:59;4.15;;;2.70;;
51746;SDS011;37825;40.088;18.302;2022-07-23T08:03:29;5.83;;;2.87;;
51746;SDS011;37825;40.088;18.302;2022-07-23T08:05:57;5.43;;;2.85;;
51746;SDS011;37825;40.088;18.302;2022-07-23T08:08:26;3.45;;;2.63;;
51746;SDS011;37825;40.088;18.302;2022-07-23T08:10:54;4.07;;;2.28;;
51746;SDS011;37825;40.088;18.302;2022-07-23T08:13:22;7.90;;;2.95;;
51746;SDS011;37825;40.088;18.302;2022-07-23T08:15:51;5.35;;;2.47;;
51746;SDS011;37825;40.088;18.302;2022-07-23T08:18:20;3.88;;;2.47;;
51746;SDS011;37825;40.088;18.302;2022-07-23T08:20:49;3.67;;;2.75;;
51746;SDS011;37825;40.088;18.302;2022-07-23T08:23:17;5.30;;;2.58;;
51746;SDS011;37825;40.088;18.302;2022-07-23T08:25:46;3.65;;;2.58;;
51746;SDS011;37825;40.088;18.302;2022-07-23T08:28:15;5.93;;;2.00;;
51746;SDS011;37825;40.088;18.302;2022-07-23T08:30:44;4.65;;;2.53;;
51746;SDS011;37825;40.088;18.302;2022-07-23T08:33:13;5.30;;;2.70;;
51746;SDS011;37825;40.088;18.302;2022-07-23T08:35:43;4.90;;;2.63;;
51746;SDS011;37825;40.088;18.302;2022-07-23T08:38:14;6.95;;;2.28;;
51746;SDS011;37825;40.088;18.302;2022-07-23T08:40:44;3.08;;;2.40;;
51746;SDS011;37825;40.088;18.302;2022-07-23T08:43:31;4.53;;;2.60;;
51746;SDS011;37825;40.088;18.302;2022-07-23T08:46:02;3.58;;;2.13;;
51746;SDS011;37825;40.088;18.302;2022-07-23T08:48:34;3.72;;;2.30;;
51746;SDS011;37825;40.088;18.302;2022-07-23T08:51:04;4.38;;;2.25;;
51746;SDS011;37825;40.088;18.302;2022-07-23T08:53:33;2.38;;;2.08;;
51746;SDS011;37825;40.088;18.302;2022-07-23T08:56:06;3.00;;;2.33;;
51746;SDS011;37825;40.088;18.302;2022-07-23T08:58:35;3.15;;;2.40;;
51746;SDS011;37825;40.088;18.302;2022-07-23T09:01:03;3.35;;;2.60;;
51746;SDS011;37825;40.088;18.302;2022-07-23T09:03:33;3.35;;;2.30;;
51746;SDS011;37825;40.088;18.302;2022-07-23T09:06:02;2.75;;;2.40;;
51746;SDS011;37825;40.088;18.302;2022-07-23T09:08:35;4.75;;;2.45;;
51746;SDS011;37825;40.088;18.302;2022-07-23T09:11:05;2.28;;;2.08;;
51746;SDS011;37825;40.088;18.302;2022-07-23T09:19:17;5.20;;;2.78;;
51746;SDS011;37825;40.088;18.302;2022-07-23T09:26:26;2.78;;;2.20;;
51746;SDS011;37825;40.088;18.302;2022-07-23T09:29:03;7.22;;;2.63;;
51746;SDS011;37825;40.088;18.302;2022-07-23T09:31:32;6.45;;;2.53;;
51746;SDS011;37825;40.088;18.302;2022-07-23T09:36:30;4.95;;;2.42;;
51746;SDS011;37825;40.088;18.302;2022-07-23T09:38:58;2.90;;;2.00;;
51746;SDS011;37825;40.088;18.302;2022-07-23T09:41:29;2.75;;;2.10;;
51746;SDS011;37825;40.088;18.302;2022-07-23T09:44:06;4.32;;;2.38;;
51746;SDS011;37825;40.088;18.302;2022-07-23T09:46:35;3.97;;;2.58;;
51746;SDS011;37825;40.088;18.302;2022-07-23T09:49:09;8.13;;;2.40;;
51746;SDS011;37825;40.088;18.302;2022-07-23T09:51:44;3.78;;;2.10;;
51746;SDS011;37825;40.088;18.302;2022-07-23T09:54:20;7.18;;;2.17;;
51746;SDS011;37825;40.088;18.302;2022-07-23T09:56:50;5.15;;;2.10;;
51746;SDS011;37825;40.088;18.302;2022-07-23T09:59:21;7.78;;;2.78;;
51746;SDS011;37825;40.088;18.302;2022-07-23T10:01:50;5.57;;;2.80;;
51746;SDS011;37825;40.088;18.302;2022-07-23T10:07:07;5.25;;;2.42;;
51746;SDS011;37825;40.088;18.302;2022-07-23T10:09:56;4.20;;;2.00;;
51746;SDS011;37825;40.088;18.302;2022-07-23T10:12:59;7.10;;;2.78;;
51746;SDS011;37825;40.088;18.302;2022-07-23T10:15:47;5.53;;;2.10;;
51746;SDS011;37825;40.088;18.302;2022-07-23T10:18:15;3.53;;;2.25;;
51746;SDS011;37825;40.088;18.302;2022-07-23T10:20:44;3.00;;;1.87;;
51746;SDS011;37825;40.088;18.302;2022-07-23T10:23:24;5.72;;;2.53;;
51746;SDS011;37825;40.088;18.302;2022-07-23T10:26:03;3.00;;;1.80;;
51746;SDS011;37825;40.088;18.302;2022-07-23T10:31:26;3.65;;;2.00;;
51746;SDS011;37825;40.088;18.302;2022-07-23T10:39:36;6.32;;;1.67;;
51746;SDS011;37825;40.088;18.302;2022-07-23T10:42:09;4.85;;;1.70;;
51746;SDS011;37825;40.088;18.302;2022-07-23T10:44:39;3.05;;;1.60;;
51746;SDS011;37825;40.088;18.302;2022-07-23T10:47:10;5.88;;;1.58;;
51746;SDS011;37825;40.088;18.302;2022-07-23T10:49:48;3.13;;;1.42;;
51746;SDS011;37825;40.088;18.302;2022-07-23T10:52:23;6.00;;;1.85;;
51746;SDS011;37825;40.088;18.302;2022-07-23T10:57:27;3.50;;;1.95;;
51746;SDS011;37825;40.088;18.302;2022-07-23T11:02:33;3.22;;;2.08;;
51746;SDS011;37825;40.088;18.302;2022-07-23T11:07:31;2.50;;;1.70;;
51746;SDS011;37825;40.088;18.302;2022-07-23T11:10:00;3.03;;;1.80;;
51746;SDS011;37825;40.088;18.302;2022-07-23T11:27:52;6.35;;;2.08;;
51746;SDS011;37825;40.088;18.302;2022-07-23T11:30:40;2.55;;;1.83;;
51746;SDS011;37825;40.088;18.302;2022-07-23T11:35:41;3.17;;;2.20;;
51746;SDS011;37825;40.088;18.302;2022-07-23T11:40:43;2.60;;;1.85;;
51746;SDS011;37825;40.088;18.302;2022-07-23T11:43:12;3.30;;;1.73;;
51746;SDS011;37825;40.088;18.302;2022-07-23T11:45:42;4.72;;;1.55;;
51746;SDS011;37825;40.088;18.302;2022-07-23T11:48:21;2.40;;;2.10;;
51746;SDS011;37825;40.088;18.302;2022-07-23T11:50:51;2.47;;;1.90;;
51746;SDS011;37825;40.088;18.302;2022-07-23T11:53:26;3.13;;;2.08;;
51746;SDS011;37825;40.088;18.302;2022-07-23T11:56:06;1.80;;;1.52;;
51746;SDS011;37825;40.088;18.302;2022-07-23T11:58:36;4.57;;;1.38;;
51746;SDS011;37825;40.088;18.302;2022-07-23T12:01:05;2.13;;;1.80;;
51746;SDS011;37825;40.088;18.302;2022-07-23T12:03:33;3.53;;;1.70;;
51746;SDS011;37825;40.088;18.302;2022-07-23T12:06:02;5.17;;;1.80;;
51746;SDS011;37825;40.088;18.302;2022-07-23T12:08:30;2.92;;;1.50;;
51746;SDS011;37825;40.088;18.302;2022-07-23T12:11:00;2.53;;;1.58;;
51746;SDS011;37825;40.088;18.302;2022-07-23T12:13:29;4.25;;;2.25;;
51746;SDS011;37825;40.088;18.302;2022-07-23T12:15:57;3.40;;;1.80;;
51746;SDS011;37825;40.088;18.302;2022-07-23T12:18:26;4.10;;;1.63;;
51746;SDS011;37825;40.088;18.302;2022-07-23T12:20:56;4.18;;;1.73;;
51746;SDS011;37825;40.088;18.302;2022-07-23T12:23:27;2.17;;;1.33;;
51746;SDS011;37825;40.088;18.302;2022-07-23T12:28:27;3.88;;;1.83;;
51746;SDS011;37825;40.088;18.302;2022-07-23T12:30:56;4.70;;;1.85;;
51746;SDS011;37825;40.088;18.302;2022-07-23T12:35:54;2.75;;;1.60;;
51746;SDS011;37825;40.088;18.302;2022-07-23T12:38:24;2.00;;;1.50;;
51746;SDS011;37825;40.088;18.302;2022-07-23T12:40:58;2.85;;;1.70;;
51746;SDS011;37825;40.088;18.302;2022-07-23T12:43:28;3.13;;;1.45;;
51746;SDS011;37825;40.088;18.302;2022-07-23T12:48:36;3.80;;;1.48;;
51746;SDS011;37825;40.088;18.302;2022-07-23T12:51:05;3.63;;;1.63;;
51746;SDS011;37825;40.088;18.302;2022-07-23T12:53:38;3.13;;;1.70;;
51746;SDS011;37825;40.088;18.302;2022-07-23T12:56:12;4.22;;;1.52;;
51746;SDS011;37825;40.088;18.302;2022-07-23T12:58:51;1.67;;;1.50;;
51746;SDS011;37825;40.088;18.302;2022-07-23T13:06:25;1.65;;;1.13;;
51746;SDS011;37825;40.088;18.302;2022-07-23T13:08:55;3.83;;;1.20;;
51746;SDS011;37825;40.088;18.302;2022-07-23T13:11:24;3.57;;;1.47;;
51746;SDS011;37825;40.088;18.302;2022-07-23T13:16:21;4.35;;;1.20;;
51746;SDS011;37825;40.088;18.302;2022-07-23T13:18:50;2.22;;;1.05;;
51746;SDS011;37825;40.088;18.302;2022-07-23T13:21:18;3.85;;;1.60;;
51746;SDS011;37825;40.088;18.302;2022-07-23T13:23:47;2.90;;;0.90;;
51746;SDS011;37825;40.088;18.302;2022-07-23T13:26:16;1.27;;;1.13;;
51746;SDS011;37825;40.088;18.302;2022-07-23T13:28:44;1.98;;;0.95;;
51746;SDS011;37825;40.088;18.302;2022-07-23T13:31:13;3.47;;;1.40;;
51746;SDS011;37825;40.088;18.302;2022-07-23T13:33:41;2.60;;;1.10;;
51746;SDS011;37825;40.088;18.302;2022-07-23T13:36:10;3.27;;;1.53;;
51746;SDS011;37825;40.088;18.302;2022-07-23T13:38:39;3.30;;;1.50;;
51746;SDS011;37825;40.088;18.302;2022-07-23T13:41:08;2.22;;;1.50;;
51746;SDS011;37825;40.088;18.302;2022-07-23T13:43:37;1.20;;;1.10;;
51746;SDS011;37825;40.088;18.302;2022-07-23T13:46:05;1.23;;;1.00;;
51746;SDS011;37825;40.088;18.302;2022-07-23T13:48:34;2.20;;;1.30;;
51746;SDS011;37825;40.088;18.302;2022-07-23T13:51:03;2.60;;;0.88;;
51746;SDS011;37825;40.088;18.302;2022-07-23T13:53:31;5.32;;;1.10;;
51746;SDS011;37825;40.088;18.302;2022-07-23T13:56:00;2.45;;;1.45;;
51746;SDS011;37825;40.088;18.302;2022-07-23T13:58:28;1.95;;;1.25;;
51746;SDS011;37825;40.088;18.302;2022-07-23T14:00:57;6.47;;;1.25;;
51746;SDS011;37825;40.088;18.302;2022-07-23T14:05:54;1.93;;;1.47;;
51746;SDS011;37825;40.088;18.302;2022-07-23T14:08:23;2.15;;;1.38;;
51746;SDS011;37825;40.088;18.302;2022-07-23T14:10:52;3.13;;;1.58;;
51746;SDS011;37825;40.088;18.302;2022-07-23T14:13:20;3.67;;;1.48;;
51746;SDS011;37825;40.088;18.302;2022-07-23T14:18:17;3.90;;;1.60;;
51746;SDS011;37825;40.088;18.302;2022-07-23T14:20:45;4.53;;;1.15;;
51746;SDS011;37825;40.088;18.302;2022-07-23T14:23:14;2.33;;;1.50;;
51746;SDS011;37825;40.088;18.302;2022-07-23T14:25:42;2.92;;;1.88;;
51746;SDS011;37825;40.088;18.302;2022-07-23T14:30:40;3.22;;;1.50;;
51746;SDS011;37825;40.088;18.302;2022-07-23T14:33:10;2.20;;;1.50;;
51746;SDS011;37825;40.088;18.302;2022-07-23T14:38:07;3.30;;;1.70;;
51746;SDS011;37825;40.088;18.302;2022-07-23T14:40:36;2.28;;;1.30;;
51746;SDS011;37825;40.088;18.302;2022-07-23T14:43:05;5.57;;;1.45;;
51746;SDS011;37825;40.088;18.302;2022-07-23T14:45:33;2.47;;;1.60;;
51746;SDS011;37825;40.088;18.302;2022-07-23T14:48:02;4.30;;;1.27;;
51746;SDS011;37825;40.088;18.302;2022-07-23T14:50:30;1.90;;;1.58;;
51746;SDS011;37825;40.088;18.302;2022-07-23T14:52:58;4.03;;;1.60;;
51746;SDS011;37825;40.088;18.302;2022-07-23T14:55:28;3.20;;;1.90;;
51746;SDS011;37825;40.088;18.302;2022-07-23T15:00:25;2.53;;;1.77;;
51746;SDS011;37825;40.088;18.302;2022-07-23T15:02:53;3.53;;;1.80;;
51746;SDS011;37825;40.088;18.302;2022-07-23T15:07:50;4.05;;;2.08;;
51746;SDS011;37825;40.088;18.302;2022-07-23T15:10:18;3.28;;;1.88;;
51746;SDS011;37825;40.088;18.302;2022-07-23T15:12:47;3.67;;;1.43;;
51746;SDS011;37825;40.088;18.302;2022-07-23T15:15:18;6.43;;;1.67;;
51746;SDS011;37825;40.088;18.302;2022-07-23T15:20:16;2.17;;;1.87;;
51746;SDS011;37825;40.088;18.302;2022-07-23T15:22:46;5.60;;;2.17;;
51746;SDS011;37825;40.088;18.302;2022-07-23T15:25:15;5.60;;;2.05;;
51746;SDS011;37825;40.088;18.302;2022-07-23T15:27:43;2.60;;;1.42;;
51746;SDS011;37825;40.088;18.302;2022-07-23T15:30:11;3.53;;;2.22;;
51746;SDS011;37825;40.088;18.302;2022-07-23T15:32:40;2.22;;;1.75;;
51746;SDS011;37825;40.088;18.302;2022-07-23T15:35:08;2.60;;;1.70;;
51746;SDS011;37825;40.088;18.302;2022-07-23T15:37:37;4.43;;;1.98;;
51746;SDS011;37825;40.088;18.302;2022-07-23T15:40:05;2.67;;;2.10;;
51746;SDS011;37825;40.088;18.302;2022-07-23T15:42:33;3.00;;;2.13;;
51746;SDS011;37825;40.088;18.302;2022-07-23T15:45:03;2.70;;;2.00;;
51746;SDS011;37825;40.088;18.302;2022-07-23T15:47:31;3.53;;;1.58;;
51746;SDS011;37825;40.088;18.302;2022-07-23T15:50:00;2.78;;;2.20;;
51746;SDS011;37825;40.088;18.302;2022-07-23T15:52:28;3.08;;;1.85;;
51746;SDS011;37825;40.088;18.302;2022-07-23T15:54:57;7.38;;;2.20;;
51746;SDS011;37825;40.088;18.302;2022-07-23T15:57:26;3.13;;;2.35;;
51746;SDS011;37825;40.088;18.302;2022-07-23T15:59:54;3.72;;;1.80;;
51746;SDS011;37825;40.088;18.302;2022-07-23T16:02:24;5.00;;;1.63;;
51746;SDS011;37825;40.088;18.302;2022-07-23T16:04:52;3.90;;;2.20;;
51746;SDS011;37825;40.088;18.302;2022-07-23T16:07:20;5.35;;;2.40;;
51746;SDS011;37825;40.088;18.302;2022-07-23T16:09:53;3.10;;;1.50;;
51746;SDS011;37825;40.088;18.302;2022-07-23T16:12:43;2.00;;;1.40;;
51746;SDS011;37825;40.088;18.302;2022-07-23T16:15:12;4.00;;;1.92;;
51746;SDS011;37825;40.088;18.302;2022-07-23T16:17:41;3.87;;;1.60;;